sensor_id;sensor_type;location;lat;lon;timestamp;P1;durP1;ratioP1;P2;durP2;ratioP2
27003;SDS011;14546;47.590;19.022;2022-07-12T00:00:44;3.72;;;1.33;;
27003;SDS011;14546;47.590;19.022;2022-07-12T00:03:10;3.80;;;1.30;;
27003;SDS011;14546;47.590;19.022;2022-07-12T00:05:35;14.18;;;1.40;;
27003;SDS011;14546;47.590;19.022;2022-07-12T00:08:01;7.07;;;1.20;;
27003;SDS011;14546;47.590;19.022;2022-07-12T00:10:27;6.25;;;1.27;;
27003;SDS011;14546;47.590;19.022;2022-07-12T00:12:53;5.32;;;1.27;;
27003;SDS011;14546;47.590;19.022;2022-07-12T00:15:19;2.47;;;1.30;;
27003;SDS011;14546;47.590;19.022;2022-07-12T00:17:45;3.47;;;1.20;;
27003;SDS011;14546;47.590;19.022;2022-07-12T00:20:11;5.57;;;1.10;;
27003;SDS011;14546;47.590;19.022;2022-07-12T00:22:37;4.30;;;1.23;;
27003;SDS011;14546;47.590;19.022;2022-07-12T00:25:02;8.15;;;1.42;;
27003;SDS011;14546;47.590;19.022;2022-07-12T00:27:29;5.30;;;1.25;;
27003;SDS011;14546;47.590;19.022;2022-07-12T00:29:54;4.88;;;1.15;;
27003;SDS011;14546;47.590;19.022;2022-07-12T00:32:20;4.60;;;1.13;;
27003;SDS011;14546;47.590;19.022;2022-07-12T00:34:46;4.32;;;1.20;;
27003;SDS011;14546;47.590;19.022;2022-07-12T00:37:11;7.28;;;1.20;;
27003;SDS011;14546;47.590;19.022;2022-07-12T00:39:37;4.15;;;1.42;;
27003;SDS011;14546;47.590;19.022;2022-07-12T00:42:03;5.22;;;1.60;;
27003;SDS011;14546;47.590;19.022;2022-07-12T00:44:29;4.03;;;1.00;;
27003;SDS011;14546;47.590;19.022;2022-07-12T00:46:56;10.18;;;1.45;;
27003;SDS011;14546;47.590;19.022;2022-07-12T00:49:23;2.25;;;0.95;;
27003;SDS011;14546;47.590;19.022;2022-07-12T00:51:49;2.40;;;1.10;;
27003;SDS011;14546;47.590;19.022;2022-07-12T00:54:15;6.22;;;1.13;;
27003;SDS011;14546;47.590;19.022;2022-07-12T00:56:42;3.05;;;1.20;;
27003;SDS011;14546;47.590;19.022;2022-07-12T00:59:09;5.68;;;1.15;;
27003;SDS011;14546;47.590;19.022;2022-07-12T01:01:34;3.83;;;1.42;;
27003;SDS011;14546;47.590;19.022;2022-07-12T01:04:02;5.72;;;1.08;;
27003;SDS011;14546;47.590;19.022;2022-07-12T01:06:28;3.47;;;1.35;;
27003;SDS011;14546;47.590;19.022;2022-07-12T01:08:56;2.40;;;1.00;;
27003;SDS011;14546;47.590;19.022;2022-07-12T01:11:24;5.50;;;1.30;;
27003;SDS011;14546;47.590;19.022;2022-07-12T01:13:50;4.63;;;1.83;;
27003;SDS011;14546;47.590;19.022;2022-07-12T01:16:19;4.38;;;1.00;;
27003;SDS011;14546;47.590;19.022;2022-07-12T01:18:46;2.47;;;1.15;;
27003;SDS011;14546;47.590;19.022;2022-07-12T01:21:18;3.30;;;1.10;;
27003;SDS011;14546;47.590;19.022;2022-07-12T01:23:47;5.60;;;1.17;;
27003;SDS011;14546;47.590;19.022;2022-07-12T01:26:13;8.18;;;1.20;;
27003;SDS011;14546;47.590;19.022;2022-07-12T01:28:39;7.97;;;1.10;;
27003;SDS011;14546;47.590;19.022;2022-07-12T01:31:05;4.97;;;0.93;;
27003;SDS011;14546;47.590;19.022;2022-07-12T01:33:30;1.88;;;1.00;;
27003;SDS011;14546;47.590;19.022;2022-07-12T01:35:57;3.97;;;1.30;;
27003;SDS011;14546;47.590;19.022;2022-07-12T01:38:23;5.68;;;1.02;;
27003;SDS011;14546;47.590;19.022;2022-07-12T01:40:48;4.18;;;1.27;;
27003;SDS011;14546;47.590;19.022;2022-07-12T01:43:14;11.35;;;1.40;;
27003;SDS011;14546;47.590;19.022;2022-07-12T01:45:40;3.90;;;1.73;;
27003;SDS011;14546;47.590;19.022;2022-07-12T01:48:06;4.22;;;1.00;;
27003;SDS011;14546;47.590;19.022;2022-07-12T01:50:32;5.30;;;0.90;;
27003;SDS011;14546;47.590;19.022;2022-07-12T01:52:58;4.07;;;1.10;;
27003;SDS011;14546;47.590;19.022;2022-07-12T01:55:25;4.25;;;1.08;;
27003;SDS011;14546;47.590;19.022;2022-07-12T01:57:51;3.33;;;1.10;;
27003;SDS011;14546;47.590;19.022;2022-07-12T02:00:18;3.92;;;1.10;;
27003;SDS011;14546;47.590;19.022;2022-07-12T02:02:47;4.63;;;1.05;;
27003;SDS011;14546;47.590;19.022;2022-07-12T02:05:13;4.78;;;1.27;;
27003;SDS011;14546;47.590;19.022;2022-07-12T02:07:39;1.95;;;0.90;;
27003;SDS011;14546;47.590;19.022;2022-07-12T02:10:06;2.92;;;1.08;;
27003;SDS011;14546;47.590;19.022;2022-07-12T02:12:32;3.70;;;0.80;;
27003;SDS011;14546;47.590;19.022;2022-07-12T02:14:59;6.28;;;1.30;;
27003;SDS011;14546;47.590;19.022;2022-07-12T02:17:25;8.82;;;1.30;;
27003;SDS011;14546;47.590;19.022;2022-07-12T02:19:51;2.28;;;1.05;;
27003;SDS011;14546;47.590;19.022;2022-07-12T02:22:17;4.95;;;1.05;;
27003;SDS011;14546;47.590;19.022;2022-07-12T02:24:43;8.60;;;1.30;;
27003;SDS011;14546;47.590;19.022;2022-07-12T02:27:08;4.93;;;0.80;;
27003;SDS011;14546;47.590;19.022;2022-07-12T02:29:34;4.75;;;1.40;;
27003;SDS011;14546;47.590;19.022;2022-07-12T02:32:03;3.20;;;1.08;;
27003;SDS011;14546;47.590;19.022;2022-07-12T02:34:28;3.40;;;1.13;;
27003;SDS011;14546;47.590;19.022;2022-07-12T02:36:55;6.20;;;1.08;;
27003;SDS011;14546;47.590;19.022;2022-07-12T02:39:20;3.28;;;0.90;;
27003;SDS011;14546;47.590;19.022;2022-07-12T02:41:46;8.52;;;1.45;;
27003;SDS011;14546;47.590;19.022;2022-07-12T02:44:12;3.40;;;1.30;;
27003;SDS011;14546;47.590;19.022;2022-07-12T02:46:38;3.15;;;0.80;;
27003;SDS011;14546;47.590;19.022;2022-07-12T02:49:03;2.50;;;0.90;;
27003;SDS011;14546;47.590;19.022;2022-07-12T02:51:29;2.75;;;0.90;;
27003;SDS011;14546;47.590;19.022;2022-07-12T02:53:55;2.90;;;1.00;;
27003;SDS011;14546;47.590;19.022;2022-07-12T02:56:21;1.90;;;1.10;;
27003;SDS011;14546;47.590;19.022;2022-07-12T02:58:46;3.17;;;1.27;;
27003;SDS011;14546;47.590;19.022;2022-07-12T03:01:12;6.18;;;0.98;;
27003;SDS011;14546;47.590;19.022;2022-07-12T03:03:39;5.32;;;1.40;;
27003;SDS011;14546;47.590;19.022;2022-07-12T03:06:05;3.50;;;0.93;;
27003;SDS011;14546;47.590;19.022;2022-07-12T03:08:30;2.25;;;1.10;;
27003;SDS011;14546;47.590;19.022;2022-07-12T03:10:56;3.72;;;1.48;;
27003;SDS011;14546;47.590;19.022;2022-07-12T03:13:22;3.72;;;1.00;;
27003;SDS011;14546;47.590;19.022;2022-07-12T03:15:48;6.35;;;0.90;;
27003;SDS011;14546;47.590;19.022;2022-07-12T03:18:15;6.28;;;1.20;;
27003;SDS011;14546;47.590;19.022;2022-07-12T03:20:41;3.05;;;0.88;;
27003;SDS011;14546;47.590;19.022;2022-07-12T03:23:07;4.22;;;1.13;;
27003;SDS011;14546;47.590;19.022;2022-07-12T03:25:33;3.72;;;1.02;;
27003;SDS011;14546;47.590;19.022;2022-07-12T03:27:58;8.52;;;1.20;;
27003;SDS011;14546;47.590;19.022;2022-07-12T03:30:24;2.22;;;1.10;;
27003;SDS011;14546;47.590;19.022;2022-07-12T03:32:50;4.97;;;1.30;;
27003;SDS011;14546;47.590;19.022;2022-07-12T03:35:16;4.47;;;1.15;;
27003;SDS011;14546;47.590;19.022;2022-07-12T03:37:46;7.35;;;0.85;;
27003;SDS011;14546;47.590;19.022;2022-07-12T03:40:16;2.67;;;0.93;;
27003;SDS011;14546;47.590;19.022;2022-07-12T03:42:43;4.70;;;1.60;;
27003;SDS011;14546;47.590;19.022;2022-07-12T03:45:09;12.30;;;1.20;;
27003;SDS011;14546;47.590;19.022;2022-07-12T03:47:36;3.92;;;1.02;;
27003;SDS011;14546;47.590;19.022;2022-07-12T03:50:05;4.88;;;0.90;;
27003;SDS011;14546;47.590;19.022;2022-07-12T03:52:33;8.05;;;1.42;;
27003;SDS011;14546;47.590;19.022;2022-07-12T03:54:59;2.10;;;1.00;;
27003;SDS011;14546;47.590;19.022;2022-07-12T03:57:27;10.27;;;1.40;;
27003;SDS011;14546;47.590;19.022;2022-07-12T03:59:53;7.43;;;1.17;;
27003;SDS011;14546;47.590;19.022;2022-07-12T04:02:19;7.05;;;1.13;;
27003;SDS011;14546;47.590;19.022;2022-07-12T04:04:45;4.90;;;1.50;;
27003;SDS011;14546;47.590;19.022;2022-07-12T04:07:11;7.30;;;1.38;;
27003;SDS011;14546;47.590;19.022;2022-07-12T04:09:37;5.20;;;1.13;;
27003;SDS011;14546;47.590;19.022;2022-07-12T04:12:02;6.38;;;1.10;;
27003;SDS011;14546;47.590;19.022;2022-07-12T04:14:29;5.18;;;1.48;;
27003;SDS011;14546;47.590;19.022;2022-07-12T04:16:54;5.57;;;1.23;;
27003;SDS011;14546;47.590;19.022;2022-07-12T04:19:21;5.45;;;1.27;;
27003;SDS011;14546;47.590;19.022;2022-07-12T04:21:53;5.80;;;1.20;;
27003;SDS011;14546;47.590;19.022;2022-07-12T04:24:20;9.68;;;1.30;;
27003;SDS011;14546;47.590;19.022;2022-07-12T04:26:46;8.60;;;2.03;;
27003;SDS011;14546;47.590;19.022;2022-07-12T04:29:13;5.38;;;2.53;;
27003;SDS011;14546;47.590;19.022;2022-07-12T04:31:39;9.07;;;2.75;;
27003;SDS011;14546;47.590;19.022;2022-07-12T04:34:05;6.93;;;1.80;;
27003;SDS011;14546;47.590;19.022;2022-07-12T04:36:30;4.47;;;1.98;;
27003;SDS011;14546;47.590;19.022;2022-07-12T04:38:57;5.35;;;1.95;;
27003;SDS011;14546;47.590;19.022;2022-07-12T04:41:23;5.18;;;1.20;;
27003;SDS011;14546;47.590;19.022;2022-07-12T04:43:49;4.43;;;0.95;;
27003;SDS011;14546;47.590;19.022;2022-07-12T04:46:15;2.78;;;1.00;;
27003;SDS011;14546;47.590;19.022;2022-07-12T04:48:41;7.85;;;1.00;;
27003;SDS011;14546;47.590;19.022;2022-07-12T04:51:06;3.47;;;0.85;;
27003;SDS011;14546;47.590;19.022;2022-07-12T04:53:32;5.28;;;0.90;;
27003;SDS011;14546;47.590;19.022;2022-07-12T04:55:58;6.10;;;1.17;;
27003;SDS011;14546;47.590;19.022;2022-07-12T04:58:24;3.85;;;1.20;;
27003;SDS011;14546;47.590;19.022;2022-07-12T05:00:50;2.83;;;0.90;;
27003;SDS011;14546;47.590;19.022;2022-07-12T05:03:16;4.82;;;1.10;;
27003;SDS011;14546;47.590;19.022;2022-07-12T05:05:42;8.43;;;0.98;;
27003;SDS011;14546;47.590;19.022;2022-07-12T05:08:08;4.68;;;1.38;;
27003;SDS011;14546;47.590;19.022;2022-07-12T05:10:34;7.40;;;1.63;;
27003;SDS011;14546;47.590;19.022;2022-07-12T05:13:00;2.17;;;0.98;;
27003;SDS011;14546;47.590;19.022;2022-07-12T05:15:25;3.55;;;1.05;;
27003;SDS011;14546;47.590;19.022;2022-07-12T05:17:51;8.02;;;1.58;;
27003;SDS011;14546;47.590;19.022;2022-07-12T05:20:17;3.95;;;1.00;;
27003;SDS011;14546;47.590;19.022;2022-07-12T05:22:44;7.93;;;2.15;;
27003;SDS011;14546;47.590;19.022;2022-07-12T05:25:09;7.13;;;1.40;;
27003;SDS011;14546;47.590;19.022;2022-07-12T05:27:35;2.40;;;1.10;;
27003;SDS011;14546;47.590;19.022;2022-07-12T05:30:02;5.43;;;1.27;;
27003;SDS011;14546;47.590;19.022;2022-07-12T05:32:28;8.80;;;1.10;;
27003;SDS011;14546;47.590;19.022;2022-07-12T05:34:54;4.55;;;1.38;;
27003;SDS011;14546;47.590;19.022;2022-07-12T05:37:20;7.50;;;1.75;;
27003;SDS011;14546;47.590;19.022;2022-07-12T05:39:50;2.08;;;0.90;;
27003;SDS011;14546;47.590;19.022;2022-07-12T05:42:18;6.13;;;1.13;;
27003;SDS011;14546;47.590;19.022;2022-07-12T05:44:44;8.68;;;1.10;;
27003;SDS011;14546;47.590;19.022;2022-07-12T05:47:10;3.65;;;1.00;;
27003;SDS011;14546;47.590;19.022;2022-07-12T05:49:37;6.03;;;1.17;;
27003;SDS011;14546;47.590;19.022;2022-07-12T05:52:03;4.22;;;1.08;;
27003;SDS011;14546;47.590;19.022;2022-07-12T05:54:48;4.82;;;1.00;;
27003;SDS011;14546;47.590;19.022;2022-07-12T05:57:14;5.78;;;1.10;;
27003;SDS011;14546;47.590;19.022;2022-07-12T05:59:40;3.80;;;1.45;;
27003;SDS011;14546;47.590;19.022;2022-07-12T06:02:06;2.70;;;0.88;;
27003;SDS011;14546;47.590;19.022;2022-07-12T06:04:32;4.05;;;1.05;;
27003;SDS011;14546;47.590;19.022;2022-07-12T06:06:58;2.10;;;1.00;;
27003;SDS011;14546;47.590;19.022;2022-07-12T06:09:23;3.55;;;0.80;;
27003;SDS011;14546;47.590;19.022;2022-07-12T06:11:49;6.43;;;0.95;;
27003;SDS011;14546;47.590;19.022;2022-07-12T06:14:15;3.65;;;0.65;;
27003;SDS011;14546;47.590;19.022;2022-07-12T06:16:40;2.70;;;0.90;;
27003;SDS011;14546;47.590;19.022;2022-07-12T06:19:06;3.85;;;1.23;;
27003;SDS011;14546;47.590;19.022;2022-07-12T06:21:32;2.97;;;1.10;;
27003;SDS011;14546;47.590;19.022;2022-07-12T06:23:58;1.40;;;0.70;;
27003;SDS011;14546;47.590;19.022;2022-07-12T06:26:24;3.53;;;0.85;;
27003;SDS011;14546;47.590;19.022;2022-07-12T06:28:50;4.97;;;1.00;;
27003;SDS011;14546;47.590;19.022;2022-07-12T06:31:16;2.25;;;0.70;;
27003;SDS011;14546;47.590;19.022;2022-07-12T06:33:42;3.63;;;0.80;;
27003;SDS011;14546;47.590;19.022;2022-07-12T06:36:08;2.17;;;0.88;;
27003;SDS011;14546;47.590;19.022;2022-07-12T06:38:34;2.35;;;0.90;;
27003;SDS011;14546;47.590;19.022;2022-07-12T06:41:00;2.63;;;0.90;;
27003;SDS011;14546;47.590;19.022;2022-07-12T06:43:27;3.10;;;0.90;;
27003;SDS011;14546;47.590;19.022;2022-07-12T06:45:53;2.90;;;0.80;;
27003;SDS011;14546;47.590;19.022;2022-07-12T06:48:19;1.85;;;0.70;;
27003;SDS011;14546;47.590;19.022;2022-07-12T06:50:44;1.85;;;1.15;;
27003;SDS011;14546;47.590;19.022;2022-07-12T06:53:11;4.55;;;1.17;;
27003;SDS011;14546;47.590;19.022;2022-07-12T06:55:37;2.67;;;0.90;;
27003;SDS011;14546;47.590;19.022;2022-07-12T06:58:02;6.05;;;0.80;;
27003;SDS011;14546;47.590;19.022;2022-07-12T07:00:28;1.75;;;0.70;;
27003;SDS011;14546;47.590;19.022;2022-07-12T07:02:54;2.63;;;0.80;;
27003;SDS011;14546;47.590;19.022;2022-07-12T07:05:19;3.55;;;0.80;;
27003;SDS011;14546;47.590;19.022;2022-07-12T07:07:45;2.88;;;1.00;;
27003;SDS011;14546;47.590;19.022;2022-07-12T07:10:11;3.58;;;0.95;;
27003;SDS011;14546;47.590;19.022;2022-07-12T07:12:36;8.60;;;1.05;;
27003;SDS011;14546;47.590;19.022;2022-07-12T07:15:02;3.42;;;0.80;;
27003;SDS011;14546;47.590;19.022;2022-07-12T07:17:28;6.80;;;1.10;;
27003;SDS011;14546;47.590;19.022;2022-07-12T07:19:54;8.32;;;1.48;;
27003;SDS011;14546;47.590;19.022;2022-07-12T07:22:19;2.45;;;0.90;;
27003;SDS011;14546;47.590;19.022;2022-07-12T07:24:45;1.13;;;0.63;;
27003;SDS011;14546;47.590;19.022;2022-07-12T07:27:11;2.45;;;0.77;;
27003;SDS011;14546;47.590;19.022;2022-07-12T07:29:37;3.65;;;1.05;;
27003;SDS011;14546;47.590;19.022;2022-07-12T07:32:22;4.90;;;0.73;;
27003;SDS011;14546;47.590;19.022;2022-07-12T07:34:48;7.93;;;1.02;;
27003;SDS011;14546;47.590;19.022;2022-07-12T07:37:14;1.98;;;0.80;;
27003;SDS011;14546;47.590;19.022;2022-07-12T07:39:40;5.53;;;1.73;;
27003;SDS011;14546;47.590;19.022;2022-07-12T07:42:06;2.20;;;0.88;;
27003;SDS011;14546;47.590;19.022;2022-07-12T07:44:32;1.77;;;0.80;;
27003;SDS011;14546;47.590;19.022;2022-07-12T07:46:58;0.93;;;0.80;;
27003;SDS011;14546;47.590;19.022;2022-07-12T07:49:24;6.45;;;1.00;;
27003;SDS011;14546;47.590;19.022;2022-07-12T07:51:50;4.65;;;1.00;;
27003;SDS011;14546;47.590;19.022;2022-07-12T07:54:16;11.25;;;1.30;;
27003;SDS011;14546;47.590;19.022;2022-07-12T07:56:42;6.03;;;0.80;;
27003;SDS011;14546;47.590;19.022;2022-07-12T07:59:08;3.67;;;0.90;;
27003;SDS011;14546;47.590;19.022;2022-07-12T08:01:34;7.72;;;1.35;;
27003;SDS011;14546;47.590;19.022;2022-07-12T08:04:19;1.42;;;0.63;;
27003;SDS011;14546;47.590;19.022;2022-07-12T08:06:46;4.57;;;1.00;;
27003;SDS011;14546;47.590;19.022;2022-07-12T08:09:13;3.20;;;1.00;;
27003;SDS011;14546;47.590;19.022;2022-07-12T08:11:39;6.20;;;0.85;;
27003;SDS011;14546;47.590;19.022;2022-07-12T08:14:06;3.42;;;0.75;;
27003;SDS011;14546;47.590;19.022;2022-07-12T08:16:33;7.35;;;1.00;;
27003;SDS011;14546;47.590;19.022;2022-07-12T08:18:59;5.28;;;0.70;;
27003;SDS011;14546;47.590;19.022;2022-07-12T08:21:25;10.68;;;1.10;;
27003;SDS011;14546;47.590;19.022;2022-07-12T08:23:50;7.15;;;0.70;;
27003;SDS011;14546;47.590;19.022;2022-07-12T08:26:16;1.65;;;0.52;;
27003;SDS011;14546;47.590;19.022;2022-07-12T08:28:42;3.28;;;0.77;;
27003;SDS011;14546;47.590;19.022;2022-07-12T08:31:08;3.80;;;0.80;;
27003;SDS011;14546;47.590;19.022;2022-07-12T08:33:34;3.08;;;0.60;;
27003;SDS011;14546;47.590;19.022;2022-07-12T08:36:00;1.95;;;0.70;;
27003;SDS011;14546;47.590;19.022;2022-07-12T08:38:25;4.50;;;1.23;;
27003;SDS011;14546;47.590;19.022;2022-07-12T08:40:52;1.85;;;0.80;;
27003;SDS011;14546;47.590;19.022;2022-07-12T08:43:17;1.58;;;0.60;;
27003;SDS011;14546;47.590;19.022;2022-07-12T08:45:43;1.20;;;0.75;;
27003;SDS011;14546;47.590;19.022;2022-07-12T08:48:09;5.45;;;0.77;;
27003;SDS011;14546;47.590;19.022;2022-07-12T08:50:34;5.00;;;0.95;;
27003;SDS011;14546;47.590;19.022;2022-07-12T08:53:00;3.45;;;0.73;;
27003;SDS011;14546;47.590;19.022;2022-07-12T08:57:54;4.45;;;0.90;;
27003;SDS011;14546;47.590;19.022;2022-07-12T09:00:21;3.13;;;1.00;;
27003;SDS011;14546;47.590;19.022;2022-07-12T09:05:14;4.20;;;1.10;;
27003;SDS011;14546;47.590;19.022;2022-07-12T09:07:40;3.30;;;0.73;;
27003;SDS011;14546;47.590;19.022;2022-07-12T09:10:07;5.68;;;0.90;;
27003;SDS011;14546;47.590;19.022;2022-07-12T09:12:34;7.40;;;1.05;;
27003;SDS011;14546;47.590;19.022;2022-07-12T09:15:10;1.92;;;0.70;;
27003;SDS011;14546;47.590;19.022;2022-07-12T09:17:36;3.35;;;0.90;;
27003;SDS011;14546;47.590;19.022;2022-07-12T09:20:02;3.75;;;0.90;;
27003;SDS011;14546;47.590;19.022;2022-07-12T09:22:29;6.70;;;0.80;;
27003;SDS011;14546;47.590;19.022;2022-07-12T09:24:55;5.10;;;0.80;;
27003;SDS011;14546;47.590;19.022;2022-07-12T09:27:27;2.75;;;0.90;;
27003;SDS011;14546;47.590;19.022;2022-07-12T09:29:53;5.82;;;0.90;;
27003;SDS011;14546;47.590;19.022;2022-07-12T09:32:19;4.28;;;0.82;;
27003;SDS011;14546;47.590;19.022;2022-07-12T09:35:03;2.33;;;1.38;;
27003;SDS011;14546;47.590;19.022;2022-07-12T09:37:48;4.57;;;0.90;;
27003;SDS011;14546;47.590;19.022;2022-07-12T09:40:14;1.92;;;0.70;;
27003;SDS011;14546;47.590;19.022;2022-07-12T09:42:40;1.00;;;0.60;;
27003;SDS011;14546;47.590;19.022;2022-07-12T09:45:07;2.95;;;0.90;;
27003;SDS011;14546;47.590;19.022;2022-07-12T09:47:34;2.92;;;1.05;;
27003;SDS011;14546;47.590;19.022;2022-07-12T09:50:00;3.40;;;0.85;;
27003;SDS011;14546;47.590;19.022;2022-07-12T09:52:27;2.60;;;0.85;;
27003;SDS011;14546;47.590;19.022;2022-07-12T09:54:53;4.70;;;0.70;;
27003;SDS011;14546;47.590;19.022;2022-07-12T09:57:21;1.40;;;0.60;;
27003;SDS011;14546;47.590;19.022;2022-07-12T09:59:47;4.50;;;1.00;;
27003;SDS011;14546;47.590;19.022;2022-07-12T10:02:16;9.07;;;0.75;;
27003;SDS011;14546;47.590;19.022;2022-07-12T10:04:42;2.85;;;1.00;;
27003;SDS011;14546;47.590;19.022;2022-07-12T10:07:08;9.32;;;1.20;;
27003;SDS011;14546;47.590;19.022;2022-07-12T10:09:38;4.78;;;1.10;;
27003;SDS011;14546;47.590;19.022;2022-07-12T10:12:04;5.00;;;1.00;;
27003;SDS011;14546;47.590;19.022;2022-07-12T10:14:30;3.63;;;0.80;;
27003;SDS011;14546;47.590;19.022;2022-07-12T10:16:57;7.85;;;1.00;;
27003;SDS011;14546;47.590;19.022;2022-07-12T10:19:27;3.88;;;0.80;;
27003;SDS011;14546;47.590;19.022;2022-07-12T10:21:56;4.38;;;1.13;;
27003;SDS011;14546;47.590;19.022;2022-07-12T10:29:39;7.43;;;1.13;;
27003;SDS011;14546;47.590;19.022;2022-07-12T10:32:21;8.55;;;1.17;;
27003;SDS011;14546;47.590;19.022;2022-07-12T10:35:04;2.55;;;0.70;;
27003;SDS011;14546;47.590;19.022;2022-07-12T10:37:31;7.20;;;0.80;;
27003;SDS011;14546;47.590;19.022;2022-07-12T10:42:35;4.55;;;0.70;;
27003;SDS011;14546;47.590;19.022;2022-07-12T10:45:12;2.25;;;0.85;;
27003;SDS011;14546;47.590;19.022;2022-07-12T10:50:43;1.42;;;0.82;;
27003;SDS011;14546;47.590;19.022;2022-07-12T10:58:32;11.02;;;0.95;;
27003;SDS011;14546;47.590;19.022;2022-07-12T11:00:58;2.85;;;0.60;;
27003;SDS011;14546;47.590;19.022;2022-07-12T11:03:31;5.35;;;0.90;;
27003;SDS011;14546;47.590;19.022;2022-07-12T11:06:03;9.50;;;0.98;;
27003;SDS011;14546;47.590;19.022;2022-07-12T11:08:30;18.15;;;1.38;;
27003;SDS011;14546;47.590;19.022;2022-07-12T11:10:56;16.90;;;1.10;;
27003;SDS011;14546;47.590;19.022;2022-07-12T11:13:23;5.85;;;0.90;;
27003;SDS011;14546;47.590;19.022;2022-07-12T11:15:56;7.35;;;0.90;;
27003;SDS011;14546;47.590;19.022;2022-07-12T11:18:27;6.40;;;0.95;;
27003;SDS011;14546;47.590;19.022;2022-07-12T11:20:54;4.97;;;0.80;;
27003;SDS011;14546;47.590;19.022;2022-07-12T11:23:21;4.22;;;0.80;;
27003;SDS011;14546;47.590;19.022;2022-07-12T11:25:47;5.43;;;0.65;;
27003;SDS011;14546;47.590;19.022;2022-07-12T11:28:13;4.00;;;0.60;;
27003;SDS011;14546;47.590;19.022;2022-07-12T11:30:47;10.63;;;0.63;;
27003;SDS011;14546;47.590;19.022;2022-07-12T11:33:13;3.22;;;0.47;;
27003;SDS011;14546;47.590;19.022;2022-07-12T11:35:39;3.35;;;0.80;;
27003;SDS011;14546;47.590;19.022;2022-07-12T11:38:09;2.13;;;0.60;;
27003;SDS011;14546;47.590;19.022;2022-07-12T11:40:35;1.73;;;0.45;;
27003;SDS011;14546;47.590;19.022;2022-07-12T11:43:02;3.60;;;0.60;;
27003;SDS011;14546;47.590;19.022;2022-07-12T11:45:30;1.00;;;0.52;;
27003;SDS011;14546;47.590;19.022;2022-07-12T11:47:57;4.97;;;0.80;;
27003;SDS011;14546;47.590;19.022;2022-07-12T11:50:23;1.80;;;0.60;;
27003;SDS011;14546;47.590;19.022;2022-07-12T11:52:50;10.13;;;0.80;;
27003;SDS011;14546;47.590;19.022;2022-07-12T11:55:16;2.97;;;0.57;;
27003;SDS011;14546;47.590;19.022;2022-07-12T11:57:42;9.02;;;0.90;;
27003;SDS011;14546;47.590;19.022;2022-07-12T12:00:21;4.30;;;1.20;;
27003;SDS011;14546;47.590;19.022;2022-07-12T12:02:54;1.77;;;0.70;;
27003;SDS011;14546;47.590;19.022;2022-07-12T12:05:20;1.45;;;0.47;;
27003;SDS011;14546;47.590;19.022;2022-07-12T12:07:46;5.97;;;0.60;;
27003;SDS011;14546;47.590;19.022;2022-07-12T12:10:13;12.32;;;0.93;;
27003;SDS011;14546;47.590;19.022;2022-07-12T12:15:12;0.65;;;0.38;;
27003;SDS011;14546;47.590;19.022;2022-07-12T12:17:46;3.42;;;0.50;;
27003;SDS011;14546;47.590;19.022;2022-07-12T12:20:18;1.90;;;0.57;;
27003;SDS011;14546;47.590;19.022;2022-07-12T12:22:45;3.90;;;0.63;;
27003;SDS011;14546;47.590;19.022;2022-07-12T12:25:11;6.47;;;0.70;;
27003;SDS011;14546;47.590;19.022;2022-07-12T12:27:57;4.72;;;0.70;;
27003;SDS011;14546;47.590;19.022;2022-07-12T12:30:23;1.70;;;0.50;;
27003;SDS011;14546;47.590;19.022;2022-07-12T12:32:50;2.90;;;0.55;;
27003;SDS011;14546;47.590;19.022;2022-07-12T12:35:21;1.90;;;0.60;;
27003;SDS011;14546;47.590;19.022;2022-07-12T12:37:57;1.60;;;0.50;;
27003;SDS011;14546;47.590;19.022;2022-07-12T12:40:24;1.80;;;0.68;;
27003;SDS011;14546;47.590;19.022;2022-07-12T12:42:50;2.35;;;0.47;;
27003;SDS011;14546;47.590;19.022;2022-07-12T12:45:23;2.85;;;0.50;;
27003;SDS011;14546;47.590;19.022;2022-07-12T12:48:00;3.45;;;0.50;;
27003;SDS011;14546;47.590;19.022;2022-07-12T12:51:26;4.15;;;0.40;;
27003;SDS011;14546;47.590;19.022;2022-07-12T12:53:22;3.53;;;0.50;;
27003;SDS011;14546;47.590;19.022;2022-07-12T12:55:49;2.45;;;0.43;;
27003;SDS011;14546;47.590;19.022;2022-07-12T12:58:16;5.25;;;0.40;;
27003;SDS011;14546;47.590;19.022;2022-07-12T13:00:44;2.83;;;0.30;;
27003;SDS011;14546;47.590;19.022;2022-07-12T13:03:11;0.65;;;0.40;;
27003;SDS011;14546;47.590;19.022;2022-07-12T13:05:37;4.88;;;0.50;;
27003;SDS011;14546;47.590;19.022;2022-07-12T13:08:04;1.15;;;0.32;;
27003;SDS011;14546;47.590;19.022;2022-07-12T13:10:31;1.45;;;0.30;;
27003;SDS011;14546;47.590;19.022;2022-07-12T13:12:57;0.77;;;0.38;;
27003;SDS011;14546;47.590;19.022;2022-07-12T13:15:24;1.80;;;0.52;;
27003;SDS011;14546;47.590;19.022;2022-07-12T13:17:50;4.32;;;0.60;;
27003;SDS011;14546;47.590;19.022;2022-07-12T13:20:16;5.57;;;0.50;;
27003;SDS011;14546;47.590;19.022;2022-07-12T13:22:42;6.85;;;0.60;;
27003;SDS011;14546;47.590;19.022;2022-07-12T13:25:09;2.35;;;0.47;;
27003;SDS011;14546;47.590;19.022;2022-07-12T13:27:36;3.13;;;0.40;;
27003;SDS011;14546;47.590;19.022;2022-07-12T13:30:03;2.75;;;0.57;;
27003;SDS011;14546;47.590;19.022;2022-07-12T13:32:31;10.90;;;0.80;;
27003;SDS011;14546;47.590;19.022;2022-07-12T13:34:57;4.13;;;0.52;;
27003;SDS011;14546;47.590;19.022;2022-07-12T13:37:24;2.40;;;1.10;;
27003;SDS011;14546;47.590;19.022;2022-07-12T13:39:50;2.20;;;0.32;;
27003;SDS011;14546;47.590;19.022;2022-07-12T13:42:35;2.85;;;0.35;;
27003;SDS011;14546;47.590;19.022;2022-07-12T13:45:01;1.73;;;0.20;;
27003;SDS011;14546;47.590;19.022;2022-07-12T13:47:27;5.47;;;0.80;;
27003;SDS011;14546;47.590;19.022;2022-07-12T13:49:53;3.35;;;0.57;;
27003;SDS011;14546;47.590;19.022;2022-07-12T13:52:19;1.83;;;0.50;;
27003;SDS011;14546;47.590;19.022;2022-07-12T13:54:45;0.55;;;0.35;;
27003;SDS011;14546;47.590;19.022;2022-07-12T13:57:11;2.80;;;0.38;;
27003;SDS011;14546;47.590;19.022;2022-07-12T13:59:38;3.53;;;0.30;;
27003;SDS011;14546;47.590;19.022;2022-07-12T14:02:04;1.85;;;0.30;;
27003;SDS011;14546;47.590;19.022;2022-07-12T14:04:31;4.18;;;0.43;;
27003;SDS011;14546;47.590;19.022;2022-07-12T14:06:57;4.95;;;0.65;;
27003;SDS011;14546;47.590;19.022;2022-07-12T14:09:23;2.83;;;0.50;;
27003;SDS011;14546;47.590;19.022;2022-07-12T14:11:49;1.65;;;0.40;;
27003;SDS011;14546;47.590;19.022;2022-07-12T14:14:15;2.17;;;0.38;;
27003;SDS011;14546;47.590;19.022;2022-07-12T14:17:01;3.38;;;0.50;;
27003;SDS011;14546;47.590;19.022;2022-07-12T14:19:27;1.65;;;0.50;;
27003;SDS011;14546;47.590;19.022;2022-07-12T14:21:53;2.53;;;0.50;;
27003;SDS011;14546;47.590;19.022;2022-07-12T14:24:19;2.85;;;0.38;;
27003;SDS011;14546;47.590;19.022;2022-07-12T14:26:45;1.00;;;0.30;;
27003;SDS011;14546;47.590;19.022;2022-07-12T14:29:11;1.80;;;0.40;;
27003;SDS011;14546;47.590;19.022;2022-07-12T14:31:37;2.20;;;0.40;;
27003;SDS011;14546;47.590;19.022;2022-07-12T14:34:03;1.83;;;0.47;;
27003;SDS011;14546;47.590;19.022;2022-07-12T14:36:29;3.90;;;0.40;;
27003;SDS011;14546;47.590;19.022;2022-07-12T14:38:55;1.08;;;0.40;;
27003;SDS011;14546;47.590;19.022;2022-07-12T14:41:21;2.10;;;0.70;;
27003;SDS011;14546;47.590;19.022;2022-07-12T14:43:47;10.18;;;0.63;;
27003;SDS011;14546;47.590;19.022;2022-07-12T14:46:14;7.10;;;0.52;;
27003;SDS011;14546;47.590;19.022;2022-07-12T14:48:41;2.25;;;0.50;;
27003;SDS011;14546;47.590;19.022;2022-07-12T14:51:08;2.50;;;0.50;;
27003;SDS011;14546;47.590;19.022;2022-07-12T14:53:34;0.75;;;0.35;;
27003;SDS011;14546;47.590;19.022;2022-07-12T14:56:00;2.65;;;0.63;;